Terminal Aerodrome Forecast
Issued by NWS Wilmington, OH

Current Version | Previous Version | Graphics & Text | Print | Product List | Glossary On
Versions: 1 2 3 4 5 6 7 8 9 10 11 12 13 14 15 16 17 18 19 20 21 22 23 24 25
000
FTUS41 KILN 221300 AAA
TAFDAY
TAF AMD
KDAY 221328Z 2213/2312 01009KT P6SM OVC025
      TEMPO 2213/2215 BKN015
     FM221700 36010KT P6SM SCT030
     FM230000 01004KT P6SM SKC=

USA.gov is the U.S. government's official web portal to all federal, state and local government web resources and services.